createdAt,value
2023-11-28T00:00:23.648Z,17.3
2023-11-28T00:20:23.944Z,17.3
2023-11-28T00:40:22.197Z,17.2
2023-11-28T01:00:23.253Z,17.2
2023-11-28T01:20:22.020Z,17.1
2023-11-28T01:40:24.167Z,17.1
2023-11-28T02:00:23.372Z,17
2023-11-28T02:20:22.339Z,16.9
2023-11-28T02:40:21.372Z,16.9
2023-11-28T03:00:21.642Z,16.8
2023-11-28T03:20:23.198Z,16.8
2023-11-28T03:40:21.898Z,16.7
2023-11-28T04:00:22.230Z,16.7
2023-11-28T04:20:22.197Z,16.6
2023-11-28T04:40:21.837Z,16.6
2023-11-28T05:00:22.905Z,16.6
2023-11-28T05:20:21.943Z,16.6
2023-11-28T05:40:22.102Z,16.6
2023-11-28T06:00:25.416Z,16.7
2023-11-28T06:20:22.370Z,16.7
2023-11-28T06:40:21.708Z,16.8
2023-11-28T07:00:22.369Z,16.8
2023-11-28T07:20:40.673Z,16.8
2023-11-28T07:40:39.261Z,16.8
2023-11-28T08:00:40.079Z,16.7
2023-11-28T08:20:38.987Z,16.7
2023-11-28T08:40:38.896Z,16.7
2023-11-28T09:00:41.650Z,16.7
2023-11-28T09:20:40.512Z,16.7
2023-11-28T09:40:39.494Z,16.7
2023-11-28T10:00:39.452Z,16.7
2023-11-28T10:20:40.597Z,16.7
2023-11-28T10:40:43.489Z,16.8
2023-11-28T11:00:39.611Z,16.7
2023-11-28T11:20:39.064Z,16.8
2023-11-28T11:40:40.045Z,16.8
2023-11-28T12:00:38.433Z,16.8
2023-11-28T12:20:49.749Z,16.9
2023-11-28T12:40:39.415Z,16.9
2023-11-28T13:00:38.671Z,16.9
2023-11-28T13:20:40.554Z,16.9
2023-11-28T13:40:39.951Z,16.9
2023-11-28T14:00:39.011Z,16.9
2023-11-28T14:20:39.329Z,16.9
2023-11-28T14:40:39.746Z,16.9
2023-11-28T15:00:34.631Z,16.8
2023-11-28T15:20:43.777Z,16.8
2023-11-28T15:40:22.079Z,16.8
2023-11-28T16:00:23.084Z,16.8
2023-11-28T16:20:23.814Z,16.8
2023-11-28T16:40:22.398Z,16.8
2023-11-28T17:00:25.098Z,16.8
2023-11-28T17:20:22.751Z,16.8
2023-11-28T17:40:25.698Z,17
2023-11-28T18:00:28.943Z,17.1
2023-11-28T18:20:22.363Z,17.1
2023-11-28T18:40:22.584Z,17.3
2023-11-28T19:00:22.693Z,17.4
2023-11-28T19:20:23.504Z,17.5
2023-11-28T19:40:25.380Z,17.6
2023-11-28T20:00:27.039Z,17.8
2023-11-28T20:20:25.592Z,18
2023-11-28T20:40:25.451Z,18.2
2023-11-28T21:00:23.558Z,18.3
2023-11-28T21:20:23.550Z,18.4
2023-11-28T21:40:27.305Z,18.5
2023-11-28T22:00:26.092Z,18.4
2023-11-28T22:20:22.413Z,18.3
2023-11-28T22:40:22.593Z,18.2
2023-11-28T23:00:29.326Z,18.2
2023-11-28T23:20:25.040Z,18.1
2023-11-28T23:40:22.203Z,18.1
